createdAt,value
2019-03-29T00:00:12.282Z,5.77
2019-03-29T00:02:45.053Z,5.83
2019-03-29T00:05:15.286Z,5.86
2019-03-29T00:07:45.276Z,5.80
2019-03-29T00:10:16.344Z,5.79
2019-03-29T00:12:46.643Z,5.78
2019-03-29T00:15:17.482Z,5.67
2019-03-29T00:17:47.434Z,5.61
2019-03-29T00:20:17.512Z,5.58
2019-03-29T00:22:47.736Z,5.57
2019-03-29T00:25:17.877Z,5.51
2019-03-29T00:27:48.827Z,5.45
2019-03-29T00:30:22.110Z,5.42
2019-03-29T00:32:53.264Z,5.39
2019-03-29T00:35:23.610Z,5.33
2019-03-29T00:37:55.638Z,5.27
2019-03-29T00:40:26.386Z,5.22
2019-03-29T00:43:01.620Z,5.19
2019-03-29T00:45:32.602Z,5.15
2019-03-29T00:48:02.616Z,5.23
2019-03-29T00:50:33.044Z,5.23
2019-03-29T00:53:03.182Z,5.22
2019-03-29T00:55:33.158Z,5.16
2019-03-29T00:58:03.244Z,5.12
2019-03-29T01:00:33.724Z,5.11
2019-03-29T01:03:04.454Z,5.09
2019-03-29T01:05:35.257Z,5.10
2019-03-29T01:08:08.281Z,5.04
2019-03-29T01:10:38.896Z,4.99
2019-03-29T01:13:09.851Z,4.92
2019-03-29T01:15:40.838Z,4.90
2019-03-29T01:18:11.815Z,4.97
2019-03-29T01:20:42.150Z,4.98
2019-03-29T01:23:12.241Z,5.04
2019-03-29T01:25:42.255Z,5.12
2019-03-29T01:28:12.642Z,5.18
2019-03-29T01:30:43.345Z,5.38
2019-03-29T01:33:14.172Z,5.54
2019-03-29T01:35:44.872Z,5.67
2019-03-29T01:38:21.702Z,5.66
2019-03-29T01:40:50.885Z,5.77
2019-03-29T01:43:21.047Z,5.86
2019-03-29T01:45:51.724Z,5.91
2019-03-29T01:48:23.109Z,5.90
2019-03-29T01:51:00.022Z,5.86
2019-03-29T01:53:31.008Z,5.84
2019-03-29T01:56:05.209Z,5.80
2019-03-29T01:58:36.239Z,5.76
2019-03-29T02:01:09.064Z,5.77
2019-03-29T02:03:43.607Z,5.76
2019-03-29T02:06:15.549Z,5.74
2019-03-29T02:08:46.658Z,5.70
2019-03-29T02:11:21.923Z,5.82
2019-03-29T02:13:56.019Z,5.99
2019-03-29T02:16:26.332Z,6.00
2019-03-29T02:18:56.326Z,6.11
2019-03-29T02:21:26.693Z,6.29
2019-03-29T02:23:57.084Z,6.29
2019-03-29T02:26:27.487Z,6.38
2019-03-29T02:28:57.905Z,6.37
2019-03-29T02:31:29.058Z,6.43
2019-03-29T02:34:01.743Z,6.47
2019-03-29T02:36:34.740Z,6.46
2019-03-29T02:39:11.383Z,6.45
2019-03-29T02:41:41.243Z,6.46
2019-03-29T02:44:11.102Z,6.40
2019-03-29T02:46:41.007Z,6.36
2019-03-29T02:49:12.722Z,6.39
2019-03-29T02:51:42.478Z,6.34
2019-03-29T02:54:12.389Z,6.32
2019-03-29T02:56:42.258Z,6.32
2019-03-29T02:59:12.176Z,6.33
2019-03-29T03:01:42.253Z,6.26
2019-03-29T03:04:12.126Z,6.21
2019-03-29T03:06:42.000Z,6.15
2019-03-29T03:09:14.324Z,6.14
2019-03-29T03:11:43.622Z,6.15
2019-03-29T03:14:13.636Z,6.11
2019-03-29T03:16:43.558Z,5.99
2019-03-29T03:19:13.382Z,6.00
2019-03-29T03:21:43.521Z,5.97
2019-03-29T03:24:13.388Z,5.97
2019-03-29T03:26:43.205Z,5.89
2019-03-29T03:29:13.290Z,5.95
2019-03-29T03:31:43.154Z,5.91
2019-03-29T03:34:12.980Z,5.95
2019-03-29T03:36:42.837Z,6.02
2019-03-29T03:39:30.196Z,6.02
2019-03-29T03:41:44.295Z,5.97
2019-03-29T03:44:14.139Z,5.98
2019-03-29T03:46:44.040Z,5.93
2019-03-29T03:49:13.856Z,5.93
2019-03-29T03:51:43.654Z,5.96
2019-03-29T03:54:13.532Z,6.02
2019-03-29T03:56:43.987Z,6.02
2019-03-29T03:59:14.111Z,5.98
2019-03-29T04:01:44.013Z,5.97
2019-03-29T04:04:13.978Z,6.01
2019-03-29T04:06:43.830Z,6.03
2019-03-29T04:09:13.700Z,6.00
2019-03-29T04:11:43.799Z,6.02
2019-03-29T04:14:13.610Z,6.00
2019-03-29T04:16:43.547Z,5.98
2019-03-29T04:19:13.479Z,6.04
2019-03-29T04:21:43.362Z,6.02
2019-03-29T04:24:13.259Z,6.01
2019-03-29T04:26:43.181Z,6.03
2019-03-29T04:29:12.993Z,5.99
2019-03-29T04:31:42.865Z,5.99
2019-03-29T04:34:12.878Z,5.96
2019-03-29T04:36:42.723Z,5.94
2019-03-29T04:39:12.616Z,5.97
2019-03-29T04:41:42.577Z,5.91
2019-03-29T04:44:12.406Z,5.83
2019-03-29T04:46:42.263Z,5.81
2019-03-29T04:49:12.357Z,5.81
2019-03-29T04:51:42.617Z,5.85
2019-03-29T04:54:12.488Z,5.80
2019-03-29T04:56:42.494Z,5.80
2019-03-29T04:59:12.387Z,5.80
2019-03-29T05:01:42.263Z,5.82
2019-03-29T05:04:12.250Z,5.86
2019-03-29T05:06:42.095Z,6.00
2019-03-29T05:09:11.988Z,6.02
2019-03-29T05:11:42.002Z,6.14
2019-03-29T05:14:11.805Z,6.26
2019-03-29T05:16:41.677Z,6.36
2019-03-29T05:19:11.747Z,6.50
2019-03-29T05:21:41.670Z,6.70
2019-03-29T05:24:11.558Z,6.86
2019-03-29T05:26:41.362Z,7.03
2019-03-29T05:29:11.181Z,7.15
2019-03-29T05:31:41.065Z,7.22
2019-03-29T05:34:10.907Z,7.29
2019-03-29T05:36:40.691Z,7.36
2019-03-29T05:39:10.552Z,7.43
2019-03-29T05:41:40.507Z,7.32
2019-03-29T05:44:10.387Z,7.37
2019-03-29T05:46:40.214Z,7.61
2019-03-29T05:49:10.208Z,7.98
2019-03-29T05:51:40.085Z,8.35
2019-03-29T05:54:09.996Z,8.75
2019-03-29T05:56:39.938Z,8.90
2019-03-29T05:59:09.776Z,9.24
2019-03-29T06:01:39.629Z,9.42
2019-03-29T06:04:09.609Z,9.47
2019-03-29T06:06:39.488Z,9.51
2019-03-29T06:09:09.403Z,10.09
2019-03-29T06:11:39.267Z,10.87
2019-03-29T06:14:09.085Z,11.31
2019-03-29T06:16:39.579Z,11.57
2019-03-29T06:19:09.637Z,12.62
2019-03-29T06:21:39.513Z,13.44
2019-03-29T06:24:09.416Z,14.10
2019-03-29T06:26:39.592Z,14.52
2019-03-29T06:29:09.461Z,15.48
2019-03-29T06:31:39.430Z,16.01
2019-03-29T06:34:09.636Z,16.00
2019-03-29T06:36:39.980Z,15.85
2019-03-29T06:39:11.202Z,16.72
2019-03-29T06:41:41.040Z,16.54
2019-03-29T06:44:10.874Z,16.41
2019-03-29T06:46:40.811Z,17.16
2019-03-29T06:49:10.851Z,17.16
2019-03-29T06:51:40.680Z,17.26
2019-03-29T06:54:10.782Z,16.81
2019-03-29T06:56:40.650Z,16.81
2019-03-29T06:59:10.447Z,17.36
2019-03-29T07:01:40.588Z,17.92
2019-03-29T07:04:10.726Z,18.45
2019-03-29T07:06:40.556Z,18.27
2019-03-29T07:09:10.786Z,17.29
2019-03-29T07:11:40.612Z,18.23
2019-03-29T07:14:10.479Z,17.99
2019-03-29T07:16:40.421Z,18.40
2019-03-29T07:19:10.424Z,18.23
2019-03-29T07:21:40.321Z,18.47
2019-03-29T07:24:10.462Z,18.36
2019-03-29T07:26:40.328Z,18.55
2019-03-29T07:29:10.156Z,18.53
2019-03-29T07:31:40.060Z,17.59
2019-03-29T07:34:10.137Z,17.87
2019-03-29T07:36:39.998Z,17.84
2019-03-29T07:39:09.872Z,16.89
2019-03-29T07:41:39.767Z,16.88
2019-03-29T07:44:09.631Z,17.15
2019-03-29T07:46:39.542Z,17.73
2019-03-29T07:49:09.625Z,17.93
2019-03-29T07:51:39.447Z,16.80
2019-03-29T07:54:09.349Z,17.09
2019-03-29T07:56:39.456Z,16.22
2019-03-29T07:59:09.354Z,16.50
2019-03-29T08:01:39.251Z,17.31
2019-03-29T08:04:10.047Z,18.25
2019-03-29T08:06:39.835Z,19.33
2019-03-29T08:09:21.794Z,19.84
2019-03-29T08:11:46.472Z,19.04
2019-03-29T08:14:14.961Z,19.24
2019-03-29T08:16:44.843Z,19.36
2019-03-29T08:19:14.686Z,18.37
2019-03-29T08:21:44.518Z,18.64
2019-03-29T08:24:14.499Z,18.37
2019-03-29T08:26:44.351Z,19.08
2019-03-29T08:29:14.217Z,20.43
2019-03-29T08:31:44.194Z,21.18
2019-03-29T08:34:14.038Z,19.85
2019-03-29T08:36:43.924Z,19.22
2019-03-29T08:39:27.423Z,19.78
2019-03-29T08:41:59.057Z,19.83
2019-03-29T08:44:17.298Z,20.34
2019-03-29T08:46:47.198Z,18.81
2019-03-29T08:49:17.314Z,18.60
2019-03-29T08:51:47.112Z,18.83
2019-03-29T08:54:16.992Z,19.12
2019-03-29T08:56:46.821Z,19.05
2019-03-29T08:59:17.683Z,19.33
2019-03-29T09:01:47.766Z,18.99
2019-03-29T09:04:17.832Z,17.85
2019-03-29T09:06:53.797Z,17.38
2019-03-29T09:09:19.417Z,17.31
2019-03-29T09:11:49.278Z,17.67
2019-03-29T09:14:19.140Z,18.60
2019-03-29T09:16:49.005Z,19.78
2019-03-29T09:19:18.850Z,19.69
2019-03-29T09:21:48.671Z,20.14
2019-03-29T09:24:22.213Z,18.64
2019-03-29T09:26:50.144Z,19.52
2019-03-29T09:29:20.094Z,19.28
2019-03-29T09:31:49.935Z,18.38
2019-03-29T09:34:19.789Z,18.41
2019-03-29T09:36:49.637Z,18.83
2019-03-29T09:39:19.562Z,19.24
2019-03-29T09:41:49.424Z,20.91
2019-03-29T09:44:19.554Z,18.61
2019-03-29T09:46:49.515Z,18.34
2019-03-29T09:49:19.347Z,18.34
2019-03-29T09:51:49.389Z,17.19
2019-03-29T09:54:20.597Z,18.46
2019-03-29T09:56:50.705Z,18.46
2019-03-29T09:59:23.129Z,18.41
2019-03-29T10:01:53.945Z,18.41
2019-03-29T10:04:23.904Z,18.12
2019-03-29T10:06:53.931Z,17.23
2019-03-29T10:09:23.801Z,17.40
2019-03-29T10:11:53.614Z,19.75
2019-03-29T10:14:23.454Z,19.75
2019-03-29T10:16:53.355Z,19.49
2019-03-29T10:19:23.170Z,20.06
2019-03-29T10:21:53.231Z,19.62
2019-03-29T10:24:23.156Z,20.54
2019-03-29T10:26:53.408Z,21.86
2019-03-29T10:29:23.428Z,21.68
2019-03-29T10:31:53.322Z,19.81
2019-03-29T10:34:23.175Z,19.57
2019-03-29T10:36:53.018Z,19.22
2019-03-29T10:39:26.112Z,19.41
2019-03-29T10:41:54.465Z,19.29
2019-03-29T10:44:24.305Z,20.27
2019-03-29T10:46:54.250Z,20.98
2019-03-29T10:49:24.355Z,21.33
2019-03-29T10:51:54.177Z,21.78
2019-03-29T10:54:24.054Z,22.42
2019-03-29T10:56:53.938Z,20.40
2019-03-29T10:59:27.544Z,20.34
2019-03-29T11:01:55.528Z,19.83
2019-03-29T11:04:25.403Z,20.15
2019-03-29T11:06:55.254Z,20.19
2019-03-29T11:09:25.263Z,20.36
2019-03-29T11:11:55.080Z,21.54
2019-03-29T11:14:24.920Z,23.23
2019-03-29T11:16:55.245Z,24.14
2019-03-29T11:19:25.126Z,24.77
2019-03-29T11:21:54.988Z,24.16
2019-03-29T11:24:25.072Z,23.21
2019-03-29T11:26:54.881Z,23.24
2019-03-29T11:29:24.834Z,23.19
2019-03-29T11:31:54.953Z,21.64
2019-03-29T11:34:24.773Z,20.78
2019-03-29T11:36:54.666Z,18.99
2019-03-29T11:39:27.491Z,17.06
2019-03-29T11:41:56.432Z,16.31
2019-03-29T11:44:26.484Z,15.95
2019-03-29T11:46:56.368Z,15.40
2019-03-29T11:49:26.233Z,15.06
2019-03-29T11:51:56.173Z,15.12
2019-03-29T11:54:26.055Z,14.92
2019-03-29T11:56:55.862Z,14.75
2019-03-29T11:59:25.777Z,14.72
2019-03-29T12:01:55.787Z,14.70
2019-03-29T12:04:25.794Z,14.64
2019-03-29T12:06:55.719Z,14.58
2019-03-29T12:09:25.669Z,14.47
2019-03-29T12:11:55.546Z,14.44
2019-03-29T12:14:25.428Z,14.51
2019-03-29T12:16:55.370Z,14.51
2019-03-29T12:19:25.375Z,14.31
2019-03-29T12:21:55.470Z,14.12
2019-03-29T12:24:25.419Z,14.05
2019-03-29T12:26:55.316Z,13.89
2019-03-29T12:29:25.359Z,14.03
2019-03-29T12:31:55.462Z,14.02
2019-03-29T12:34:25.315Z,14.05
2019-03-29T12:36:55.276Z,14.06
2019-03-29T12:39:25.149Z,13.95
2019-03-29T12:41:55.007Z,14.00
2019-03-29T12:44:25.138Z,14.03
2019-03-29T12:46:55.012Z,13.90
2019-03-29T12:49:24.895Z,14.03
2019-03-29T12:51:54.750Z,14.03
2019-03-29T12:54:24.740Z,13.97
2019-03-29T12:56:54.802Z,13.95
2019-03-29T12:59:24.772Z,13.97
2019-03-29T13:01:54.664Z,14.05
2019-03-29T13:04:24.535Z,14.12
2019-03-29T13:06:54.566Z,13.97
2019-03-29T13:09:24.445Z,13.89
2019-03-29T13:11:54.383Z,13.91
2019-03-29T13:14:24.669Z,14.00
2019-03-29T13:16:54.624Z,14.06
2019-03-29T13:19:24.498Z,13.89
2019-03-29T13:21:54.387Z,13.84
2019-03-29T13:24:24.302Z,14.00
2019-03-29T13:26:54.513Z,14.13
2019-03-29T13:29:24.781Z,14.18
2019-03-29T13:31:54.657Z,14.18
2019-03-29T13:34:24.481Z,14.25
2019-03-29T13:36:54.525Z,14.27
2019-03-29T13:39:24.518Z,14.35
2019-03-29T13:41:54.381Z,14.37
2019-03-29T13:44:26.779Z,14.29
2019-03-29T13:46:56.001Z,14.30
2019-03-29T13:49:26.114Z,14.24
2019-03-29T13:51:55.952Z,14.26
2019-03-29T13:54:25.800Z,14.17
2019-03-29T13:56:55.815Z,14.14
2019-03-29T13:59:25.639Z,14.14
2019-03-29T14:01:55.512Z,14.17
2019-03-29T14:04:25.579Z,13.96
2019-03-29T14:06:55.406Z,13.98
2019-03-29T14:09:25.356Z,13.99
2019-03-29T14:11:55.278Z,13.97
2019-03-29T14:14:37.622Z,13.95
2019-03-29T14:16:57.102Z,13.99
2019-03-29T14:19:26.926Z,13.87
2019-03-29T14:21:56.792Z,13.83
2019-03-29T14:24:26.906Z,13.89
2019-03-29T14:26:56.753Z,13.86
2019-03-29T14:29:26.590Z,13.82
2019-03-29T14:31:56.443Z,13.83
2019-03-29T14:34:26.507Z,13.88
2019-03-29T14:36:59.243Z,13.86
2019-03-29T14:39:29.075Z,13.83
2019-03-29T14:42:00.739Z,13.78
2019-03-29T14:44:30.603Z,13.80
2019-03-29T14:47:00.523Z,13.68
2019-03-29T14:49:30.620Z,13.65
2019-03-29T14:52:00.638Z,13.58
2019-03-29T14:54:30.716Z,13.56
2019-03-29T14:57:00.928Z,13.48
2019-03-29T14:59:30.796Z,13.49
2019-03-29T15:02:00.648Z,13.49
2019-03-29T15:04:30.482Z,13.42
2019-03-29T15:07:00.376Z,13.31
2019-03-29T15:09:30.461Z,13.33
2019-03-29T15:12:00.264Z,13.30
2019-03-29T15:14:30.118Z,13.24
2019-03-29T15:17:00.245Z,13.19
2019-03-29T15:19:30.225Z,13.14
2019-03-29T15:22:00.053Z,13.09
2019-03-29T15:24:29.949Z,13.06
2019-03-29T15:26:59.781Z,12.99
2019-03-29T15:29:29.677Z,12.96
2019-03-29T15:31:59.583Z,12.93
2019-03-29T15:34:29.607Z,12.92
2019-03-29T15:36:59.538Z,12.94
2019-03-29T15:39:29.447Z,12.92
2019-03-29T15:41:59.633Z,12.89
2019-03-29T15:44:29.474Z,12.83
2019-03-29T15:46:59.408Z,12.78
2019-03-29T15:49:29.441Z,12.70
2019-03-29T15:51:59.289Z,12.68
2019-03-29T15:54:29.141Z,12.63
2019-03-29T15:56:59.251Z,12.56
2019-03-29T15:59:29.131Z,12.53
2019-03-29T16:01:59.019Z,12.57
2019-03-29T16:04:29.044Z,12.49
2019-03-29T16:06:58.936Z,12.45
2019-03-29T16:09:28.891Z,12.39
2019-03-29T16:11:58.917Z,12.31
2019-03-29T16:14:28.875Z,12.28
2019-03-29T16:16:58.844Z,12.21
2019-03-29T16:19:28.815Z,12.18
2019-03-29T16:21:58.664Z,12.13
2019-03-29T16:24:28.575Z,12.09
2019-03-29T16:26:58.536Z,11.99
2019-03-29T16:29:28.383Z,11.95
2019-03-29T16:31:58.293Z,11.89
2019-03-29T16:34:28.243Z,11.87
2019-03-29T16:36:58.058Z,11.88
2019-03-29T16:39:27.972Z,11.79
2019-03-29T16:41:57.883Z,11.72
2019-03-29T16:44:27.731Z,11.63
2019-03-29T16:46:57.618Z,11.59
2019-03-29T16:49:27.674Z,11.59
2019-03-29T16:51:57.514Z,11.52
2019-03-29T16:54:27.374Z,11.48
2019-03-29T16:56:57.502Z,11.39
2019-03-29T16:59:27.347Z,11.22
2019-03-29T17:01:57.278Z,11.04
2019-03-29T17:04:27.392Z,10.87
2019-03-29T17:06:57.236Z,10.71
2019-03-29T17:09:27.358Z,10.63
2019-03-29T17:11:57.408Z,10.54
2019-03-29T17:14:27.240Z,10.51
2019-03-29T17:16:57.236Z,10.43
2019-03-29T17:19:27.188Z,10.31
2019-03-29T17:21:57.005Z,10.21
2019-03-29T17:24:26.953Z,10.10
2019-03-29T17:26:57.048Z,9.97
2019-03-29T17:29:26.907Z,9.87
2019-03-29T17:31:56.744Z,9.77
2019-03-29T17:34:26.845Z,9.66
2019-03-29T17:36:56.724Z,9.55
2019-03-29T17:39:26.587Z,9.46
2019-03-29T17:41:56.864Z,9.43
2019-03-29T17:44:26.696Z,9.31
2019-03-29T17:46:56.605Z,9.20
2019-03-29T17:49:26.471Z,9.11
2019-03-29T17:51:56.298Z,8.95
2019-03-29T17:54:26.173Z,8.79
2019-03-29T17:56:56.069Z,8.75
2019-03-29T17:59:25.925Z,8.62
2019-03-29T18:02:08.844Z,8.54
2019-03-29T18:04:27.661Z,8.51
2019-03-29T18:06:57.476Z,8.46
2019-03-29T18:09:27.374Z,8.39
2019-03-29T18:11:57.234Z,8.39
2019-03-29T18:14:27.080Z,8.35
2019-03-29T18:16:56.948Z,8.41
2019-03-29T18:19:26.802Z,8.41
2019-03-29T18:21:56.654Z,8.42
2019-03-29T18:24:26.569Z,8.34
2019-03-29T18:26:56.646Z,8.24
2019-03-29T18:29:26.451Z,8.06
2019-03-29T18:31:56.336Z,7.92
2019-03-29T18:34:26.491Z,7.77
2019-03-29T18:36:58.146Z,7.63
2019-03-29T18:39:28.464Z,7.49
2019-03-29T18:41:58.486Z,7.34
2019-03-29T18:44:28.324Z,7.23
2019-03-29T18:46:58.459Z,7.08
2019-03-29T18:49:28.298Z,6.94
2019-03-29T18:51:58.169Z,6.81
2019-03-29T18:54:28.071Z,6.70
2019-03-29T18:56:57.882Z,6.72
2019-03-29T18:59:27.826Z,6.67
2019-03-29T19:01:58.053Z,6.63
2019-03-29T19:04:27.903Z,6.58
2019-03-29T19:06:57.711Z,6.55
2019-03-29T19:09:27.754Z,6.53
2019-03-29T19:11:57.631Z,6.47
2019-03-29T19:14:27.444Z,6.52
2019-03-29T19:16:59.170Z,6.52
2019-03-29T19:19:29.139Z,6.56
2019-03-29T19:21:59.126Z,6.60
2019-03-29T19:24:29.039Z,6.64
2019-03-29T19:26:58.921Z,6.81
2019-03-29T19:29:28.930Z,6.84
2019-03-29T19:31:58.770Z,6.93
2019-03-29T19:34:28.615Z,6.93
2019-03-29T19:37:01.449Z,6.90
2019-03-29T19:39:30.327Z,6.88
2019-03-29T19:42:00.332Z,6.87
2019-03-29T19:44:30.141Z,6.98
2019-03-29T19:47:12.760Z,7.09
2019-03-29T19:49:33.945Z,7.04
2019-03-29T19:52:03.965Z,6.97
2019-03-29T19:54:33.843Z,6.92
2019-03-29T19:57:03.702Z,7.00
2019-03-29T19:59:33.805Z,7.13
2019-03-29T20:02:03.775Z,7.15
2019-03-29T20:04:33.617Z,7.21
2019-03-29T20:07:04.152Z,7.18
2019-03-29T20:09:34.090Z,7.19
2019-03-29T20:12:03.960Z,7.17
2019-03-29T20:14:33.913Z,7.20
2019-03-29T20:17:03.840Z,7.09
2019-03-29T20:19:33.748Z,7.08
2019-03-29T20:22:03.622Z,7.13
2019-03-29T20:24:33.585Z,7.27
2019-03-29T20:27:03.394Z,7.26
2019-03-29T20:29:33.452Z,7.20
2019-03-29T20:32:03.435Z,7.28
2019-03-29T20:34:33.438Z,7.25
2019-03-29T20:37:03.324Z,7.17
2019-03-29T20:39:33.305Z,7.19
2019-03-29T20:42:03.257Z,7.15
2019-03-29T20:44:33.081Z,7.14
2019-03-29T20:47:03.052Z,7.12
2019-03-29T20:49:32.962Z,7.10
2019-03-29T20:52:03.085Z,7.00
2019-03-29T20:54:33.013Z,6.96
2019-03-29T20:57:02.930Z,6.93
2019-03-29T20:59:32.927Z,6.90
2019-03-29T21:02:02.831Z,6.85
2019-03-29T21:04:32.693Z,6.92
2019-03-29T21:07:02.612Z,6.84
2019-03-29T21:09:32.516Z,6.76
2019-03-29T21:12:02.513Z,6.70
2019-03-29T21:14:32.370Z,6.65
2019-03-29T21:17:02.303Z,6.72
2019-03-29T21:19:32.175Z,6.71
2019-03-29T21:22:01.994Z,6.60
2019-03-29T21:24:31.934Z,6.54
2019-03-29T21:27:01.944Z,6.52
2019-03-29T21:29:32.074Z,6.54
2019-03-29T21:32:01.950Z,6.57
2019-03-29T21:34:31.867Z,6.60
2019-03-29T21:37:01.936Z,6.66
2019-03-29T21:39:31.819Z,6.72
2019-03-29T21:42:01.716Z,6.74
2019-03-29T21:44:31.749Z,6.72
2019-03-29T21:47:01.709Z,6.64
2019-03-29T21:49:31.589Z,6.56
2019-03-29T21:52:01.645Z,6.47
2019-03-29T21:54:31.656Z,6.46
2019-03-29T21:57:01.631Z,6.45
2019-03-29T21:59:31.709Z,6.39
2019-03-29T22:02:01.607Z,6.25
2019-03-29T22:04:31.406Z,6.22
2019-03-29T22:07:01.335Z,6.26
2019-03-29T22:09:37.262Z,6.24
2019-03-29T22:12:03.073Z,6.29
2019-03-29T22:14:32.931Z,6.30
2019-03-29T22:17:02.897Z,6.20
2019-03-29T22:19:32.951Z,6.09
2019-03-29T22:22:02.859Z,6.05
2019-03-29T22:24:32.768Z,6.11
2019-03-29T22:27:02.901Z,6.19
2019-03-29T22:29:32.736Z,6.27
2019-03-29T22:32:02.595Z,6.29
2019-03-29T22:34:32.619Z,6.22
2019-03-29T22:37:02.623Z,6.17
2019-03-29T22:39:32.493Z,6.17
2019-03-29T22:42:02.547Z,6.24
2019-03-29T22:44:32.481Z,6.23
2019-03-29T22:47:02.326Z,6.17
2019-03-29T22:49:32.370Z,6.22
2019-03-29T22:52:02.340Z,6.31
2019-03-29T22:54:32.249Z,6.32
2019-03-29T22:57:02.148Z,6.27
2019-03-29T22:59:32.965Z,6.21
2019-03-29T23:02:03.098Z,6.16
2019-03-29T23:04:32.952Z,6.16
2019-03-29T23:07:02.811Z,6.16
2019-03-29T23:09:32.871Z,6.15
2019-03-29T23:12:02.809Z,6.17
2019-03-29T23:14:32.610Z,6.18
2019-03-29T23:17:02.557Z,6.16
2019-03-29T23:19:32.397Z,6.17
2019-03-29T23:22:02.375Z,6.15
2019-03-29T23:24:32.341Z,6.04
2019-03-29T23:27:02.299Z,6.01
2019-03-29T23:29:32.229Z,5.98
2019-03-29T23:32:02.051Z,5.93
2019-03-29T23:34:31.888Z,5.98
2019-03-29T23:37:01.974Z,5.91
2019-03-29T23:39:31.804Z,5.83
2019-03-29T23:42:01.677Z,5.70
2019-03-29T23:44:31.812Z,5.67
2019-03-29T23:47:01.701Z,5.63
2019-03-29T23:49:31.569Z,5.57
2019-03-29T23:52:01.564Z,5.50
2019-03-29T23:54:31.388Z,5.50
2019-03-29T23:57:01.229Z,5.47
2019-03-29T23:59:31.246Z,5.46
